createdAt,value
2023-04-15T00:02:23.486Z,7.50
2023-04-15T00:04:55.693Z,7.54
2023-04-15T00:07:30.756Z,7.57
2023-04-15T00:10:02.898Z,7.51
2023-04-15T00:12:35.401Z,7.52
2023-04-15T00:15:08.889Z,7.54
2023-04-15T00:17:41.630Z,7.57
2023-04-15T00:20:14.895Z,7.59
2023-04-15T00:22:49.977Z,7.57
2023-04-15T00:25:21.960Z,7.54
2023-04-15T00:27:54.182Z,7.60
2023-04-15T00:30:26.916Z,7.60
2023-04-15T00:32:59.270Z,7.60
2023-04-15T00:35:33.257Z,7.60
2023-04-15T00:38:10.039Z,7.67
2023-04-15T00:40:42.258Z,7.61
2023-04-15T00:43:14.616Z,7.61
2023-04-15T00:45:47.568Z,7.64
2023-04-15T00:48:20.118Z,7.59
2023-04-15T00:50:52.319Z,7.62
2023-04-15T00:53:27.379Z,7.70
2023-04-15T00:55:59.717Z,7.67
2023-04-15T00:58:32.580Z,7.65
2023-04-15T01:01:04.823Z,7.50
2023-04-15T01:03:37.357Z,7.56
2023-04-15T01:06:10.195Z,7.48
2023-04-15T01:08:45.810Z,7.52
2023-04-15T01:11:18.677Z,7.57
2023-04-15T01:13:51.616Z,7.62
2023-04-15T01:16:23.881Z,7.56
2023-04-15T01:18:56.519Z,7.66
2023-04-15T01:21:28.689Z,7.77
2023-04-15T01:24:05.037Z,7.67
2023-04-15T01:26:43.034Z,7.67
2023-04-15T01:29:17.917Z,7.67
2023-04-15T01:31:55.381Z,7.66
2023-04-15T01:34:27.733Z,7.58
2023-04-15T01:36:59.918Z,7.61
2023-04-15T01:39:32.335Z,7.56
2023-04-15T01:42:07.345Z,7.55
2023-04-15T01:44:39.778Z,7.59
2023-04-15T01:47:12.799Z,7.67
2023-04-15T01:49:45.330Z,7.67
2023-04-15T01:52:17.355Z,7.69
2023-04-15T01:54:50.007Z,7.69
2023-04-15T01:57:24.607Z,7.67
2023-04-15T01:59:57.086Z,7.61
2023-04-15T02:02:29.766Z,7.71
2023-04-15T02:05:02.447Z,7.72
2023-04-15T02:07:35.048Z,7.56
2023-04-15T02:10:08.070Z,7.60
2023-04-15T02:12:43.024Z,7.59
2023-04-15T02:15:15.862Z,7.59
2023-04-15T02:17:51.327Z,7.72
2023-04-15T02:20:24.273Z,7.75
2023-04-15T02:22:57.172Z,7.78
2023-04-15T02:25:29.308Z,7.76
2023-04-15T02:28:04.074Z,7.78
2023-04-15T02:30:36.325Z,7.80
2023-04-15T02:33:08.287Z,7.75
2023-04-15T02:35:44.544Z,7.80
2023-04-15T02:38:18.311Z,7.81
2023-04-15T02:40:50.684Z,7.68
2023-04-15T02:43:25.257Z,7.69
2023-04-15T02:45:57.428Z,7.60
2023-04-15T02:48:29.146Z,7.60
2023-04-15T02:51:15.777Z,7.67
2023-04-15T02:53:47.485Z,7.68
2023-04-15T02:56:20.243Z,7.67
2023-04-15T02:58:56.548Z,7.73
2023-04-15T03:01:28.893Z,7.66
2023-04-15T03:04:00.982Z,7.82
2023-04-15T03:06:33.300Z,7.81
2023-04-15T03:09:05.646Z,7.75
2023-04-15T03:11:41.097Z,7.80
2023-04-15T03:14:15.441Z,7.78
2023-04-15T03:16:47.461Z,7.69
2023-04-15T03:19:19.128Z,7.65
2023-04-15T03:21:51.178Z,7.69
2023-04-15T03:24:23.624Z,7.74
2023-04-15T03:27:02.399Z,7.74
2023-04-15T03:29:36.846Z,7.78
2023-04-15T03:32:09.022Z,7.77
2023-04-15T03:34:41.721Z,7.83
2023-04-15T03:37:13.780Z,7.93
2023-04-15T03:39:45.464Z,7.87
2023-04-15T03:42:17.398Z,7.91
2023-04-15T03:44:51.764Z,7.94
2023-04-15T03:47:23.943Z,7.98
2023-04-15T03:49:55.584Z,7.99
2023-04-15T03:52:27.692Z,7.98
2023-04-15T03:54:59.364Z,8.03
2023-04-15T03:57:31.565Z,8.08
2023-04-15T04:00:05.966Z,8.09
2023-04-15T04:02:38.205Z,8.08
2023-04-15T04:05:10.261Z,8.01
2023-04-15T04:07:42.420Z,8.07
2023-04-15T04:10:14.676Z,8.10
2023-04-15T04:12:46.804Z,8.22
2023-04-15T04:15:21.820Z,8.19
2023-04-15T04:17:54.160Z,8.30
2023-04-15T04:20:26.245Z,8.37
2023-04-15T04:22:58.536Z,8.23
2023-04-15T04:25:30.591Z,8.32
2023-04-15T04:28:02.938Z,8.25
2023-04-15T04:30:38.903Z,8.29
2023-04-15T04:33:11.440Z,8.22
2023-04-15T04:35:43.642Z,8.27
2023-04-15T04:38:16.181Z,8.31
2023-04-15T04:40:48.162Z,8.41
2023-04-15T04:43:20.539Z,8.33
2023-04-15T04:45:55.310Z,8.38
2023-04-15T04:48:27.679Z,8.45
2023-04-15T04:50:59.719Z,8.53
2023-04-15T04:53:32.242Z,8.60
2023-04-15T04:56:04.198Z,8.63
2023-04-15T04:58:36.676Z,8.62
2023-04-15T05:01:11.329Z,8.61
2023-04-15T05:03:44.193Z,8.66
2023-04-15T05:06:16.338Z,8.72
2023-04-15T05:08:48.776Z,8.67
2023-04-15T05:11:20.849Z,8.73
2023-04-15T05:13:53.260Z,8.84
2023-04-15T05:16:27.983Z,8.83
2023-04-15T05:19:00.621Z,8.75
2023-04-15T05:21:33.220Z,8.78
2023-04-15T05:24:05.679Z,8.79
2023-04-15T05:26:37.633Z,8.86
2023-04-15T05:29:10.003Z,8.90
2023-04-15T05:31:44.862Z,8.98
2023-04-15T05:34:17.890Z,8.90
2023-04-15T05:36:49.917Z,9.01
2023-04-15T05:39:22.398Z,8.98
2023-04-15T05:41:54.520Z,9.04
2023-04-15T05:44:27.476Z,9.07
2023-04-15T05:47:03.903Z,9.07
2023-04-15T05:49:36.501Z,9.17
2023-04-15T05:52:08.840Z,9.18
2023-04-15T05:54:41.443Z,9.23
2023-04-15T05:57:13.459Z,9.31
2023-04-15T05:59:45.568Z,9.38
2023-04-15T06:02:20.107Z,9.44
2023-04-15T06:04:52.707Z,9.54
2023-04-15T06:07:24.370Z,9.60
2023-04-15T06:09:56.361Z,9.68
2023-04-15T06:12:29.142Z,9.75
2023-04-15T06:15:01.265Z,9.76
2023-04-15T06:17:35.581Z,9.69
2023-04-15T06:20:08.875Z,9.60
2023-04-15T06:22:41.581Z,9.66
2023-04-15T06:25:13.844Z,9.72
2023-04-15T06:27:45.562Z,9.74
2023-04-15T06:30:17.693Z,9.76
2023-04-15T06:32:52.180Z,9.86
2023-04-15T06:35:24.386Z,9.82
2023-04-15T06:37:56.109Z,9.94
2023-04-15T06:40:28.502Z,10.02
2023-04-15T06:43:00.216Z,10.10
2023-04-15T06:45:32.792Z,10.13
2023-04-15T06:48:07.682Z,10.17
2023-04-15T06:50:39.806Z,10.34
2023-04-15T06:53:11.830Z,10.53
2023-04-15T06:55:43.940Z,10.68
2023-04-15T06:58:15.710Z,10.73
2023-04-15T07:00:48.241Z,10.84
2023-04-15T07:03:22.878Z,10.96
2023-04-15T07:05:55.043Z,10.93
2023-04-15T07:08:26.918Z,11.26
2023-04-15T07:10:59.021Z,11.35
2023-04-15T07:13:34.087Z,11.41
2023-04-15T07:16:10.135Z,11.29
2023-04-15T07:18:44.577Z,11.20
2023-04-15T07:21:16.657Z,10.94
2023-04-15T07:23:48.347Z,10.98
2023-04-15T07:26:20.521Z,10.91
2023-04-15T07:28:52.696Z,10.66
2023-04-15T07:31:24.765Z,10.75
2023-04-15T07:33:59.065Z,10.65
2023-04-15T07:36:31.316Z,10.71
2023-04-15T07:39:04.434Z,10.54
2023-04-15T07:41:36.808Z,10.57
2023-04-15T07:44:08.945Z,10.48
2023-04-15T07:46:41.066Z,10.63
2023-04-15T07:49:16.142Z,10.50
2023-04-15T07:51:48.363Z,10.51
2023-04-15T07:54:20.199Z,10.47
2023-04-15T07:56:52.284Z,10.39
2023-04-15T07:59:24.324Z,10.32
2023-04-15T08:01:56.786Z,10.23
2023-04-15T08:04:31.718Z,10.24
2023-04-15T08:07:04.318Z,10.24
2023-04-15T08:09:36.465Z,10.21
2023-04-15T08:12:12.802Z,10.31
2023-04-15T08:14:46.638Z,10.53
2023-04-15T08:17:20.668Z,10.67
2023-04-15T08:19:55.325Z,10.64
2023-04-15T08:22:27.958Z,10.60
2023-04-15T08:24:59.989Z,10.38
2023-04-15T08:27:33.719Z,10.47
2023-04-15T08:30:05.897Z,10.35
2023-04-15T08:32:38.359Z,10.44
2023-04-15T08:35:13.405Z,10.36
2023-04-15T08:37:45.897Z,10.16
2023-04-15T08:40:17.905Z,10.21
2023-04-15T08:42:56.421Z,10.27
2023-04-15T08:45:28.961Z,10.34
2023-04-15T08:48:02.588Z,10.48
2023-04-15T08:50:38.386Z,10.49
2023-04-15T08:53:11.038Z,10.54
2023-04-15T08:55:46.842Z,10.56
2023-04-15T08:58:20.082Z,10.65
2023-04-15T09:00:52.373Z,10.64
2023-04-15T09:03:25.224Z,10.63
2023-04-15T09:06:00.950Z,10.56
2023-04-15T09:08:33.302Z,10.50
2023-04-15T09:11:06.203Z,10.57
2023-04-15T09:13:38.590Z,10.67
2023-04-15T09:16:11.445Z,10.75
2023-04-15T09:18:44.129Z,10.74
2023-04-15T09:21:21.204Z,10.61
2023-04-15T09:24:02.313Z,10.70
2023-04-15T09:26:36.147Z,10.71
2023-04-15T09:29:10.100Z,10.68
2023-04-15T09:31:41.880Z,10.53
2023-04-15T09:34:13.998Z,10.49
2023-04-15T09:37:03.168Z,10.63
2023-04-15T09:39:52.513Z,10.72
2023-04-15T09:42:25.539Z,10.74
2023-04-15T09:44:57.717Z,10.78
2023-04-15T09:47:33.451Z,10.77
2023-04-15T09:50:05.776Z,10.84
2023-04-15T09:52:46.518Z,10.86
2023-04-15T09:55:21.507Z,10.80
2023-04-15T09:57:53.236Z,10.66
2023-04-15T10:00:25.586Z,10.73
2023-04-15T10:02:57.427Z,10.53
2023-04-15T10:05:31.333Z,10.46
2023-04-15T10:08:06.400Z,10.57
2023-04-15T10:10:39.348Z,10.71
2023-04-15T10:13:12.060Z,10.66
2023-04-15T10:15:47.732Z,10.66
2023-04-15T10:18:22.586Z,10.58
2023-04-15T10:20:55.185Z,10.59
2023-04-15T10:23:29.975Z,10.71
2023-04-15T10:26:16.088Z,10.67
2023-04-15T10:28:49.798Z,10.72
2023-04-15T10:31:23.333Z,10.76
2023-04-15T10:33:56.721Z,10.75
2023-04-15T10:36:29.638Z,10.81
2023-04-15T10:39:04.261Z,10.73
2023-04-15T10:41:36.801Z,10.83
2023-04-15T10:44:08.947Z,10.79
2023-04-15T10:46:43.123Z,10.79
2023-04-15T10:49:16.214Z,10.71
2023-04-15T10:51:55.460Z,10.72
2023-04-15T10:54:39.360Z,10.79
2023-04-15T10:57:22.261Z,10.91
2023-04-15T11:00:17.843Z,10.92
2023-04-15T11:02:51.838Z,10.92
2023-04-15T11:05:53.272Z,11.01
2023-04-15T11:08:59.453Z,10.78
2023-04-15T11:12:00.959Z,10.86
2023-04-15T11:14:37.252Z,10.59
2023-04-15T11:17:08.934Z,10.57
2023-04-15T11:19:41.656Z,10.67
2023-04-15T11:22:14.517Z,10.72
2023-04-15T11:24:52.356Z,10.70
2023-04-15T11:27:25.438Z,10.74
2023-04-15T11:30:00.522Z,10.67
2023-04-15T11:32:33.058Z,10.71
2023-04-15T11:35:05.616Z,10.62
2023-04-15T11:37:37.754Z,10.66
2023-04-15T11:40:12.155Z,10.61
2023-04-15T11:42:49.705Z,10.66
2023-04-15T11:45:25.399Z,10.62
2023-04-15T11:47:57.439Z,10.64
2023-04-15T11:50:29.779Z,10.61
2023-04-15T11:53:03.358Z,10.59
2023-04-15T11:55:46.720Z,10.68
2023-04-15T11:58:20.920Z,10.60
2023-04-15T12:00:58.115Z,10.66
2023-04-15T12:03:31.886Z,10.71
2023-04-15T12:06:19.836Z,10.81
2023-04-15T12:09:06.954Z,10.90
2023-04-15T12:11:43.882Z,10.92
2023-04-15T12:14:24.922Z,10.90
2023-04-15T12:17:02.419Z,10.74
2023-04-15T12:19:38.983Z,10.75
2023-04-15T12:22:13.785Z,10.86
2023-04-15T12:24:49.400Z,10.85
2023-04-15T12:27:21.496Z,10.94
2023-04-15T12:29:53.235Z,10.93
2023-04-15T12:32:28.074Z,10.87
2023-04-15T12:34:59.998Z,10.76
2023-04-15T12:37:32.119Z,10.81
2023-04-15T12:40:03.899Z,10.95
2023-04-15T12:42:36.202Z,10.85
2023-04-15T12:45:08.861Z,10.87
2023-04-15T12:47:43.594Z,10.97
2023-04-15T12:50:15.304Z,10.97
2023-04-15T12:52:47.344Z,11.16
2023-04-15T12:55:19.242Z,11.07
2023-04-15T12:57:51.439Z,11.13
2023-04-15T13:00:23.491Z,11.18
2023-04-15T13:02:58.321Z,11.14
2023-04-15T13:05:30.182Z,11.18
2023-04-15T13:08:02.582Z,11.18
2023-04-15T13:10:34.426Z,11.11
2023-04-15T13:13:06.785Z,10.92
2023-04-15T13:15:38.781Z,10.94
2023-04-15T13:18:13.499Z,10.94
2023-04-15T13:20:45.340Z,10.98
2023-04-15T13:23:17.863Z,11.04
2023-04-15T13:25:49.562Z,11.05
2023-04-15T13:28:21.820Z,11.07
2023-04-15T13:30:53.561Z,11.12
2023-04-15T13:33:28.389Z,11.15
2023-04-15T13:36:00.629Z,11.10
2023-04-15T13:38:33.201Z,11.13
2023-04-15T13:41:05.312Z,11.16
2023-04-15T13:43:38.090Z,11.10
2023-04-15T13:46:12.109Z,11.21
2023-04-15T13:48:47.305Z,11.25
2023-04-15T13:51:22.543Z,10.95
2023-04-15T13:53:54.841Z,11.06
2023-04-15T13:56:27.204Z,11.03
2023-04-15T13:59:02.389Z,11.09
2023-04-15T14:01:35.152Z,10.95
2023-04-15T14:04:11.614Z,10.95
2023-04-15T14:06:44.768Z,10.85
2023-04-15T14:09:18.929Z,10.90
2023-04-15T14:11:52.297Z,10.75
2023-04-15T14:14:25.808Z,10.74
2023-04-15T14:16:59.846Z,10.75
2023-04-15T14:19:38.836Z,10.75
2023-04-15T14:22:12.038Z,10.75
2023-04-15T14:24:45.644Z,10.68
2023-04-15T14:27:18.805Z,10.50
2023-04-15T14:29:55.250Z,10.57
2023-04-15T14:32:29.729Z,10.54
2023-04-15T14:35:05.700Z,10.63
2023-04-15T14:37:48.957Z,10.71
2023-04-15T14:40:25.442Z,10.67
2023-04-15T14:42:58.683Z,10.68
2023-04-15T14:45:32.375Z,10.68
2023-04-15T14:48:12.745Z,10.64
2023-04-15T14:50:56.129Z,10.66
2023-04-15T14:53:34.084Z,10.74
2023-04-15T14:56:08.289Z,10.71
2023-04-15T14:58:41.852Z,10.68
2023-04-15T15:01:17.849Z,10.62
2023-04-15T15:03:53.216Z,10.59
2023-04-15T15:06:30.150Z,10.53
2023-04-15T15:09:03.912Z,10.57
2023-04-15T15:11:38.086Z,10.58
2023-04-15T15:14:11.133Z,10.59
2023-04-15T15:16:44.677Z,10.53
2023-04-15T15:19:18.324Z,10.52
2023-04-15T15:21:55.369Z,10.57
2023-04-15T15:24:30.193Z,10.45
2023-04-15T15:27:04.045Z,10.33
2023-04-15T15:30:08.015Z,10.27
2023-04-15T15:32:43.219Z,10.26
2023-04-15T15:35:15.853Z,10.35
2023-04-15T15:37:55.447Z,10.43
2023-04-15T15:40:28.162Z,10.28
2023-04-15T15:43:00.713Z,10.21
2023-04-15T15:46:16.557Z,10.31
2023-04-15T15:49:17.349Z,10.26
2023-04-15T15:51:50.272Z,10.28
2023-04-15T15:54:25.441Z,10.21
2023-04-15T15:56:58.052Z,10.28
2023-04-15T15:59:33.506Z,10.13
2023-04-15T16:02:06.396Z,10.10
2023-04-15T16:04:43.754Z,10.16
2023-04-15T16:07:16.278Z,10.23
2023-04-15T16:09:51.348Z,10.20
2023-04-15T16:12:23.757Z,10.22
2023-04-15T16:14:56.137Z,10.11
2023-04-15T16:17:28.565Z,10.17
2023-04-15T16:20:05.868Z,10.15
2023-04-15T16:22:38.659Z,10.19
2023-04-15T16:25:13.996Z,10.26
2023-04-15T16:27:58.886Z,10.25
2023-04-15T16:30:34.287Z,10.34
2023-04-15T16:33:06.881Z,10.30
2023-04-15T16:35:39.727Z,10.28
2023-04-15T16:38:12.318Z,10.31
2023-04-15T16:40:47.499Z,10.34
2023-04-15T16:43:19.646Z,10.42
2023-04-15T16:45:53.057Z,10.42
2023-04-15T16:48:25.580Z,10.35
2023-04-15T16:50:58.205Z,10.36
2023-04-15T16:53:30.618Z,10.30
2023-04-15T16:56:06.235Z,10.36
2023-04-15T16:58:38.831Z,10.39
2023-04-15T17:01:12.453Z,10.50
2023-04-15T17:03:46.523Z,10.43
2023-04-15T17:06:19.419Z,10.51
2023-04-15T17:08:57.905Z,10.46
2023-04-15T17:11:45.907Z,10.39
2023-04-15T17:14:18.497Z,10.42
2023-04-15T17:16:50.896Z,10.44
2023-04-15T17:19:23.801Z,10.46
2023-04-15T17:21:58.663Z,10.35
2023-04-15T17:24:30.976Z,10.34
2023-04-15T17:27:08.771Z,10.21
2023-04-15T17:29:44.115Z,10.27
2023-04-15T17:32:17.232Z,10.27
2023-04-15T17:34:51.308Z,10.21
2023-04-15T17:37:24.456Z,10.28
2023-04-15T17:39:56.919Z,10.10
2023-04-15T17:42:32.497Z,10.21
2023-04-15T17:45:06.166Z,10.17
2023-04-15T17:47:40.909Z,10.04
2023-04-15T17:50:14.713Z,10.00
2023-04-15T17:52:48.898Z,10.10
2023-04-15T17:55:22.647Z,10.14
2023-04-15T17:57:58.066Z,10.10
2023-04-15T18:00:30.319Z,10.05
2023-04-15T18:03:03.546Z,10.04
2023-04-15T18:05:35.765Z,10.10
2023-04-15T18:08:09.479Z,10.15
2023-04-15T18:10:45.094Z,10.10
2023-04-15T18:13:20.145Z,10.08
2023-04-15T18:15:55.670Z,10.12
2023-04-15T18:18:30.655Z,10.10
2023-04-15T18:21:03.065Z,10.03
2023-04-15T18:23:35.559Z,9.91
2023-04-15T18:26:32.995Z,9.94
2023-04-15T18:29:18.898Z,9.93
2023-04-15T18:31:51.170Z,9.92
2023-04-15T18:34:23.978Z,9.93
2023-04-15T18:36:56.343Z,9.90
2023-04-15T18:39:30.125Z,9.93
2023-04-15T18:42:02.349Z,10.01
2023-04-15T18:44:37.662Z,10.02
2023-04-15T18:47:09.689Z,10.05
2023-04-15T18:49:42.158Z,10.00
2023-04-15T18:52:15.482Z,9.96
2023-04-15T18:54:48.419Z,9.92
2023-04-15T18:57:28.660Z,10.15
2023-04-15T19:00:11.730Z,10.22
2023-04-15T19:02:44.658Z,10.10
2023-04-15T19:05:17.663Z,10.04
2023-04-15T19:07:49.923Z,10.14
2023-04-15T19:10:23.799Z,10.21
2023-04-15T19:12:55.925Z,10.20
2023-04-15T19:15:31.508Z,10.21
2023-04-15T19:18:10.999Z,10.24
2023-04-15T19:20:43.860Z,10.25
2023-04-15T19:23:15.939Z,10.17
2023-04-15T19:25:48.520Z,10.16
2023-04-15T19:28:20.598Z,10.19
2023-04-15T19:30:55.988Z,10.21
2023-04-15T19:33:31.889Z,10.15
2023-04-15T19:36:12.544Z,10.13
2023-04-15T19:38:45.030Z,10.04
2023-04-15T19:44:06.491Z,10.06
2023-04-15T19:46:44.168Z,10.00
2023-04-15T19:49:17.080Z,9.92
2023-04-15T19:51:51.230Z,9.86
2023-04-15T19:54:23.600Z,9.85
2023-04-15T19:56:56.962Z,9.77
2023-04-15T19:59:29.305Z,9.80
2023-04-15T20:02:04.736Z,9.79
2023-04-15T20:04:40.954Z,9.83
2023-04-15T20:07:14.489Z,9.75
2023-04-15T20:09:50.782Z,9.87
2023-04-15T20:12:49.773Z,9.82
2023-04-15T20:15:16.437Z,9.83
2023-04-15T20:17:52.305Z,9.80
2023-04-15T20:20:25.587Z,9.78
2023-04-15T20:22:58.489Z,9.81
2023-04-15T20:25:30.833Z,9.81
2023-04-15T20:28:04.967Z,9.70
2023-04-15T20:30:38.682Z,9.76
2023-04-15T20:33:14.163Z,9.68
2023-04-15T20:35:47.019Z,9.79
2023-04-15T20:38:19.982Z,9.84
2023-04-15T20:40:52.542Z,9.81
2023-04-15T20:43:26.235Z,9.64
2023-04-15T20:46:04.392Z,9.79
2023-04-15T20:48:49.060Z,9.89
2023-04-15T20:51:21.498Z,9.98
2023-04-15T20:53:54.020Z,9.86
2023-04-15T20:56:26.390Z,9.73
2023-04-15T20:58:58.900Z,9.76
2023-04-15T21:01:31.070Z,9.84
2023-04-15T21:04:06.425Z,9.86
2023-04-15T21:06:38.851Z,9.79
2023-04-15T21:09:11.128Z,9.73
2023-04-15T21:11:59.684Z,9.86
2023-04-15T21:14:35.340Z,9.83
2023-04-15T21:17:11.376Z,9.83
2023-04-15T21:19:51.204Z,9.84
2023-04-15T21:22:23.325Z,9.82
2023-04-15T21:24:56.052Z,9.86
2023-04-15T21:27:29.265Z,9.82
2023-04-15T21:30:06.229Z,9.87
2023-04-15T21:32:38.411Z,9.86
2023-04-15T21:35:13.940Z,9.86
2023-04-15T21:37:46.081Z,9.90
2023-04-15T21:40:19.818Z,9.85
2023-04-15T21:42:53.223Z,9.91
2023-04-15T21:45:25.541Z,9.87
2023-04-15T21:48:07.234Z,9.90
2023-04-15T21:50:43.947Z,9.92
2023-04-15T21:53:16.140Z,9.95
2023-04-15T21:55:48.656Z,9.92
2023-04-15T21:58:20.740Z,9.93
2023-04-15T22:00:53.298Z,9.88
2023-04-15T22:03:25.572Z,9.91
2023-04-15T22:06:00.656Z,9.89
2023-04-15T22:08:38.644Z,9.98
2023-04-15T22:11:27.696Z,9.93
2023-04-15T22:14:01.187Z,9.94
2023-04-15T22:16:33.720Z,10.03
2023-04-15T22:19:06.210Z,9.93
2023-04-15T22:21:41.699Z,9.90
2023-04-15T22:24:33.159Z,9.89
2023-04-15T22:27:06.600Z,9.92
2023-04-15T22:29:38.827Z,9.94
2023-04-15T22:32:11.281Z,10.02
2023-04-15T22:34:43.479Z,9.86
2023-04-15T22:37:22.260Z,9.91
2023-04-15T22:39:55.317Z,9.76
2023-04-15T22:42:30.789Z,9.93
2023-04-15T22:48:49.310Z,9.92
2023-04-15T22:51:27.352Z,9.86
2023-04-15T22:54:02.486Z,9.92
2023-04-15T22:56:34.522Z,9.94
2023-04-15T22:59:10.021Z,9.98
2023-04-15T23:01:42.279Z,10.00
2023-04-15T23:04:25.684Z,10.00
2023-04-15T23:06:59.396Z,9.87
2023-04-15T23:09:34.563Z,9.63
2023-04-15T23:12:06.693Z,9.68
2023-04-15T23:15:02.420Z,9.79
2023-04-15T23:17:35.187Z,9.81
2023-04-15T23:20:08.571Z,9.84
2023-04-15T23:22:42.341Z,9.88
2023-04-15T23:25:18.308Z,9.76
2023-04-15T23:27:49.741Z,9.78
2023-04-15T23:30:21.787Z,9.74
2023-04-15T23:32:53.689Z,9.76
2023-04-15T23:35:25.780Z,9.79
2023-04-15T23:37:57.429Z,9.78
2023-04-15T23:40:52.277Z,9.63
2023-04-15T23:43:23.955Z,9.45
2023-04-15T23:45:55.904Z,9.35
2023-04-15T23:48:33.604Z,9.39
2023-04-15T23:51:24.894Z,9.34
2023-04-15T23:53:56.984Z,9.37
2023-04-15T23:56:32.712Z,9.27
2023-04-15T23:59:04.265Z,9.33
